sensor_id;sensor_type;location;lat;lon;timestamp;P1;durP1;ratioP1;P2;durP2;ratioP2
4023;SDS011;2026;51.002;13.668;2023-03-20T00:02:53;4.93;;;4.17;;
4023;SDS011;2026;51.002;13.668;2023-03-20T00:07:57;7.00;;;4.30;;
4023;SDS011;2026;51.002;13.668;2023-03-20T00:13:01;4.30;;;3.90;;
4023;SDS011;2026;51.002;13.668;2023-03-20T00:18:10;8.90;;;5.10;;
4023;SDS011;2026;51.002;13.668;2023-03-20T00:23:16;6.10;;;4.97;;
4023;SDS011;2026;51.002;13.668;2023-03-20T00:28:29;5.37;;;4.47;;
4023;SDS011;2026;51.002;13.668;2023-03-20T00:33:39;9.90;;;3.97;;
4023;SDS011;2026;51.002;13.668;2023-03-20T00:38:42;3.40;;;3.10;;
4023;SDS011;2026;51.002;13.668;2023-03-20T00:43:46;4.93;;;3.60;;
4023;SDS011;2026;51.002;13.668;2023-03-20T00:48:51;4.67;;;3.20;;
4023;SDS011;2026;51.002;13.668;2023-03-20T00:53:55;3.73;;;3.33;;
4023;SDS011;2026;51.002;13.668;2023-03-20T00:59:00;5.27;;;3.70;;
4023;SDS011;2026;51.002;13.668;2023-03-20T01:04:07;5.97;;;3.70;;
4023;SDS011;2026;51.002;13.668;2023-03-20T01:09:12;5.27;;;3.43;;
4023;SDS011;2026;51.002;13.668;2023-03-20T01:14:17;6.90;;;3.67;;
4023;SDS011;2026;51.002;13.668;2023-03-20T01:19:20;4.00;;;3.10;;
4023;SDS011;2026;51.002;13.668;2023-03-20T01:24:23;4.13;;;3.40;;
4023;SDS011;2026;51.002;13.668;2023-03-20T01:29:27;4.67;;;3.13;;
4023;SDS011;2026;51.002;13.668;2023-03-20T01:34:30;4.57;;;3.40;;
4023;SDS011;2026;51.002;13.668;2023-03-20T01:39:34;4.60;;;3.70;;
4023;SDS011;2026;51.002;13.668;2023-03-20T01:44:40;3.53;;;3.00;;
4023;SDS011;2026;51.002;13.668;2023-03-20T01:55:21;4.70;;;3.50;;
4023;SDS011;2026;51.002;13.668;2023-03-20T02:00:31;3.50;;;3.17;;
4023;SDS011;2026;51.002;13.668;2023-03-20T02:05:35;7.30;;;4.17;;
4023;SDS011;2026;51.002;13.668;2023-03-20T02:10:40;3.40;;;3.10;;
4023;SDS011;2026;51.002;13.668;2023-03-20T02:16:02;4.00;;;3.33;;
4023;SDS011;2026;51.002;13.668;2023-03-20T02:27:05;4.70;;;3.43;;
4023;SDS011;2026;51.002;13.668;2023-03-20T02:43:23;4.37;;;3.07;;
4023;SDS011;2026;51.002;13.668;2023-03-20T02:48:38;4.97;;;4.00;;
4023;SDS011;2026;51.002;13.668;2023-03-20T02:53:56;6.20;;;3.77;;
4023;SDS011;2026;51.002;13.668;2023-03-20T02:59:10;7.43;;;3.47;;
4023;SDS011;2026;51.002;13.668;2023-03-20T03:04:17;5.33;;;3.60;;
4023;SDS011;2026;51.002;13.668;2023-03-20T03:09:28;4.23;;;3.50;;
4023;SDS011;2026;51.002;13.668;2023-03-20T03:14:34;4.20;;;3.23;;
4023;SDS011;2026;51.002;13.668;2023-03-20T03:19:46;4.20;;;3.07;;
4023;SDS011;2026;51.002;13.668;2023-03-20T03:24:54;6.27;;;3.97;;
4023;SDS011;2026;51.002;13.668;2023-03-20T03:29:59;4.40;;;3.60;;
4023;SDS011;2026;51.002;13.668;2023-03-20T03:35:05;5.53;;;3.13;;
4023;SDS011;2026;51.002;13.668;2023-03-20T03:40:19;5.07;;;3.40;;
4023;SDS011;2026;51.002;13.668;2023-03-20T03:45:28;4.97;;;3.40;;
4023;SDS011;2026;51.002;13.668;2023-03-20T03:50:36;4.40;;;3.30;;
4023;SDS011;2026;51.002;13.668;2023-03-20T03:55:51;3.60;;;3.30;;
4023;SDS011;2026;51.002;13.668;2023-03-20T04:00:58;5.90;;;3.47;;
4023;SDS011;2026;51.002;13.668;2023-03-20T04:06:04;3.90;;;3.50;;
4023;SDS011;2026;51.002;13.668;2023-03-20T04:11:12;3.90;;;3.40;;
4023;SDS011;2026;51.002;13.668;2023-03-20T04:16:17;5.30;;;3.67;;
4023;SDS011;2026;51.002;13.668;2023-03-20T04:21:22;4.47;;;3.57;;
4023;SDS011;2026;51.002;13.668;2023-03-20T04:26:27;4.53;;;3.60;;
4023;SDS011;2026;51.002;13.668;2023-03-20T04:31:31;4.70;;;4.13;;
4023;SDS011;2026;51.002;13.668;2023-03-20T04:37:00;5.63;;;3.23;;
4023;SDS011;2026;51.002;13.668;2023-03-20T04:42:17;4.10;;;3.10;;
4023;SDS011;2026;51.002;13.668;2023-03-20T04:47:21;4.10;;;3.07;;
4023;SDS011;2026;51.002;13.668;2023-03-20T04:52:25;4.57;;;2.97;;
4023;SDS011;2026;51.002;13.668;2023-03-20T04:57:30;5.30;;;2.90;;
4023;SDS011;2026;51.002;13.668;2023-03-20T05:02:33;3.77;;;2.90;;
4023;SDS011;2026;51.002;13.668;2023-03-20T05:07:36;4.53;;;3.13;;
4023;SDS011;2026;51.002;13.668;2023-03-20T05:12:46;7.00;;;3.30;;
4023;SDS011;2026;51.002;13.668;2023-03-20T05:18:11;4.67;;;3.07;;
4023;SDS011;2026;51.002;13.668;2023-03-20T05:23:25;5.67;;;4.30;;
4023;SDS011;2026;51.002;13.668;2023-03-20T05:28:53;5.23;;;3.40;;
4023;SDS011;2026;51.002;13.668;2023-03-20T05:34:30;4.03;;;3.63;;
4023;SDS011;2026;51.002;13.668;2023-03-20T05:39:41;9.93;;;4.50;;
4023;SDS011;2026;51.002;13.668;2023-03-20T05:45:14;4.23;;;2.93;;
4023;SDS011;2026;51.002;13.668;2023-03-20T05:50:43;4.00;;;3.40;;
4023;SDS011;2026;51.002;13.668;2023-03-20T05:56:05;4.60;;;3.87;;
4023;SDS011;2026;51.002;13.668;2023-03-20T06:01:15;4.33;;;3.07;;
4023;SDS011;2026;51.002;13.668;2023-03-20T06:06:44;4.83;;;3.40;;
4023;SDS011;2026;51.002;13.668;2023-03-20T06:11:48;3.73;;;3.40;;
4023;SDS011;2026;51.002;13.668;2023-03-20T06:16:54;5.13;;;3.77;;
4023;SDS011;2026;51.002;13.668;2023-03-20T06:21:58;5.03;;;3.43;;
4023;SDS011;2026;51.002;13.668;2023-03-20T06:27:01;4.20;;;3.37;;
4023;SDS011;2026;51.002;13.668;2023-03-20T06:32:07;5.40;;;3.43;;
4023;SDS011;2026;51.002;13.668;2023-03-20T06:37:13;5.23;;;3.77;;
4023;SDS011;2026;51.002;13.668;2023-03-20T06:42:16;4.10;;;3.50;;
4023;SDS011;2026;51.002;13.668;2023-03-20T06:47:23;5.57;;;3.93;;
4023;SDS011;2026;51.002;13.668;2023-03-20T06:52:26;6.00;;;4.33;;
4023;SDS011;2026;51.002;13.668;2023-03-20T06:57:49;5.53;;;3.80;;
4023;SDS011;2026;51.002;13.668;2023-03-20T07:02:54;6.20;;;4.10;;
4023;SDS011;2026;51.002;13.668;2023-03-20T07:07:57;4.40;;;3.87;;
4023;SDS011;2026;51.002;13.668;2023-03-20T07:13:01;7.13;;;4.20;;
4023;SDS011;2026;51.002;13.668;2023-03-20T07:18:06;8.33;;;5.13;;
4023;SDS011;2026;51.002;13.668;2023-03-20T07:23:10;4.80;;;4.20;;
4023;SDS011;2026;51.002;13.668;2023-03-20T07:28:14;8.90;;;4.70;;
4023;SDS011;2026;51.002;13.668;2023-03-20T07:33:25;5.00;;;3.83;;
4023;SDS011;2026;51.002;13.668;2023-03-20T07:38:28;4.80;;;4.33;;
4023;SDS011;2026;51.002;13.668;2023-03-20T07:43:40;5.90;;;4.53;;
4023;SDS011;2026;51.002;13.668;2023-03-20T07:48:55;6.67;;;4.60;;
4023;SDS011;2026;51.002;13.668;2023-03-20T07:53:58;6.03;;;4.77;;
4023;SDS011;2026;51.002;13.668;2023-03-20T07:59:01;6.90;;;4.90;;
4023;SDS011;2026;51.002;13.668;2023-03-20T08:04:06;7.80;;;5.27;;
4023;SDS011;2026;51.002;13.668;2023-03-20T08:09:09;7.53;;;5.20;;
4023;SDS011;2026;51.002;13.668;2023-03-20T08:14:12;5.53;;;4.90;;
4023;SDS011;2026;51.002;13.668;2023-03-20T08:19:17;8.90;;;6.23;;
4023;SDS011;2026;51.002;13.668;2023-03-20T08:24:21;8.47;;;5.73;;
4023;SDS011;2026;51.002;13.668;2023-03-20T08:29:24;6.90;;;5.43;;
4023;SDS011;2026;51.002;13.668;2023-03-20T08:34:29;8.70;;;5.60;;
4023;SDS011;2026;51.002;13.668;2023-03-20T08:39:34;9.50;;;6.07;;
4023;SDS011;2026;51.002;13.668;2023-03-20T08:44:38;8.87;;;6.17;;
4023;SDS011;2026;51.002;13.668;2023-03-20T08:49:42;10.00;;;6.30;;
4023;SDS011;2026;51.002;13.668;2023-03-20T08:54:45;7.63;;;5.93;;
4023;SDS011;2026;51.002;13.668;2023-03-20T08:59:48;7.83;;;6.53;;
4023;SDS011;2026;51.002;13.668;2023-03-20T09:04:53;9.13;;;7.00;;
4023;SDS011;2026;51.002;13.668;2023-03-20T09:09:56;11.40;;;8.50;;
4023;SDS011;2026;51.002;13.668;2023-03-20T09:14:59;15.00;;;10.87;;
4023;SDS011;2026;51.002;13.668;2023-03-20T09:20:03;22.40;;;13.30;;
4023;SDS011;2026;51.002;13.668;2023-03-20T09:25:07;24.03;;;14.03;;
4023;SDS011;2026;51.002;13.668;2023-03-20T09:30:11;18.53;;;12.30;;
4023;SDS011;2026;51.002;13.668;2023-03-20T09:35:16;16.40;;;11.87;;
4023;SDS011;2026;51.002;13.668;2023-03-20T09:40:21;22.00;;;14.27;;
4023;SDS011;2026;51.002;13.668;2023-03-20T09:45:33;19.00;;;12.17;;
4023;SDS011;2026;51.002;13.668;2023-03-20T09:50:45;14.60;;;11.40;;
4023;SDS011;2026;51.002;13.668;2023-03-20T09:55:56;16.40;;;10.77;;
4023;SDS011;2026;51.002;13.668;2023-03-20T10:01:00;18.20;;;12.30;;
4023;SDS011;2026;51.002;13.668;2023-03-20T10:06:10;15.87;;;12.20;;
4023;SDS011;2026;51.002;13.668;2023-03-20T10:11:25;19.50;;;14.20;;
4023;SDS011;2026;51.002;13.668;2023-03-20T10:16:42;23.67;;;13.83;;
4023;SDS011;2026;51.002;13.668;2023-03-20T10:21:55;21.77;;;13.13;;
4023;SDS011;2026;51.002;13.668;2023-03-20T10:27:03;20.53;;;13.60;;
4023;SDS011;2026;51.002;13.668;2023-03-20T10:32:14;21.87;;;14.00;;
4023;SDS011;2026;51.002;13.668;2023-03-20T10:37:36;22.50;;;15.10;;
4023;SDS011;2026;51.002;13.668;2023-03-20T10:42:46;23.97;;;15.27;;
4023;SDS011;2026;51.002;13.668;2023-03-20T10:47:50;20.43;;;14.20;;
4023;SDS011;2026;51.002;13.668;2023-03-20T10:52:55;21.40;;;13.73;;
4023;SDS011;2026;51.002;13.668;2023-03-20T10:58:01;21.93;;;15.60;;
4023;SDS011;2026;51.002;13.668;2023-03-20T11:03:21;18.00;;;13.80;;
4023;SDS011;2026;51.002;13.668;2023-03-20T11:08:29;19.90;;;14.33;;
4023;SDS011;2026;51.002;13.668;2023-03-20T11:13:37;21.73;;;15.33;;
4023;SDS011;2026;51.002;13.668;2023-03-20T11:18:41;25.50;;;15.13;;
4023;SDS011;2026;51.002;13.668;2023-03-20T11:23:46;24.00;;;16.47;;
4023;SDS011;2026;51.002;13.668;2023-03-20T11:28:50;29.33;;;19.07;;
4023;SDS011;2026;51.002;13.668;2023-03-20T11:33:59;28.10;;;18.30;;
4023;SDS011;2026;51.002;13.668;2023-03-20T11:39:14;26.87;;;18.27;;
4023;SDS011;2026;51.002;13.668;2023-03-20T11:44:24;31.23;;;18.57;;
4023;SDS011;2026;51.002;13.668;2023-03-20T11:49:28;29.87;;;18.07;;
4023;SDS011;2026;51.002;13.668;2023-03-20T11:54:33;28.37;;;18.90;;
4023;SDS011;2026;51.002;13.668;2023-03-20T11:59:38;25.73;;;17.50;;
4023;SDS011;2026;51.002;13.668;2023-03-20T12:04:41;29.90;;;18.10;;
4023;SDS011;2026;51.002;13.668;2023-03-20T12:09:49;23.60;;;16.70;;
4023;SDS011;2026;51.002;13.668;2023-03-20T12:14:57;21.30;;;16.10;;
4023;SDS011;2026;51.002;13.668;2023-03-20T12:20:10;21.77;;;15.57;;
4023;SDS011;2026;51.002;13.668;2023-03-20T12:25:24;22.90;;;15.77;;
4023;SDS011;2026;51.002;13.668;2023-03-20T12:30:30;25.40;;;16.00;;
4023;SDS011;2026;51.002;13.668;2023-03-20T12:35:42;28.43;;;17.23;;
4023;SDS011;2026;51.002;13.668;2023-03-20T12:40:52;21.20;;;15.60;;
4023;SDS011;2026;51.002;13.668;2023-03-20T12:46:00;28.43;;;17.73;;
4023;SDS011;2026;51.002;13.668;2023-03-20T12:51:11;30.73;;;18.00;;
4023;SDS011;2026;51.002;13.668;2023-03-20T12:56:30;28.90;;;17.60;;
4023;SDS011;2026;51.002;13.668;2023-03-20T13:01:49;26.33;;;17.53;;
4023;SDS011;2026;51.002;13.668;2023-03-20T13:06:58;23.77;;;16.63;;
4023;SDS011;2026;51.002;13.668;2023-03-20T13:12:05;26.23;;;16.73;;
4023;SDS011;2026;51.002;13.668;2023-03-20T13:17:17;22.87;;;14.80;;
4023;SDS011;2026;51.002;13.668;2023-03-20T13:22:24;25.30;;;15.00;;
4023;SDS011;2026;51.002;13.668;2023-03-20T13:27:38;26.23;;;15.13;;
4023;SDS011;2026;51.002;13.668;2023-03-20T13:32:49;17.03;;;13.63;;
4023;SDS011;2026;51.002;13.668;2023-03-20T13:38:00;20.00;;;14.40;;
4023;SDS011;2026;51.002;13.668;2023-03-20T13:43:18;26.23;;;16.13;;
4023;SDS011;2026;51.002;13.668;2023-03-20T13:48:28;30.47;;;19.23;;
4023;SDS011;2026;51.002;13.668;2023-03-20T13:53:35;26.57;;;17.40;;
4023;SDS011;2026;51.002;13.668;2023-03-20T13:58:56;30.30;;;18.30;;
4023;SDS011;2026;51.002;13.668;2023-03-20T14:04:16;31.83;;;18.67;;
4023;SDS011;2026;51.002;13.668;2023-03-20T14:09:31;35.20;;;18.60;;
4023;SDS011;2026;51.002;13.668;2023-03-20T14:14:41;28.67;;;18.80;;
4023;SDS011;2026;51.002;13.668;2023-03-20T14:19:48;32.60;;;19.07;;
4023;SDS011;2026;51.002;13.668;2023-03-20T14:24:53;35.43;;;19.73;;
4023;SDS011;2026;51.002;13.668;2023-03-20T14:30:03;36.00;;;20.57;;
4023;SDS011;2026;51.002;13.668;2023-03-20T14:35:41;24.80;;;15.07;;
4023;SDS011;2026;51.002;13.668;2023-03-20T14:40:50;13.63;;;8.30;;
4023;SDS011;2026;51.002;13.668;2023-03-20T14:46:00;33.67;;;20.07;;
4023;SDS011;2026;51.002;13.668;2023-03-20T14:51:12;29.77;;;17.43;;
4023;SDS011;2026;51.002;13.668;2023-03-20T14:56:26;24.70;;;15.47;;
4023;SDS011;2026;51.002;13.668;2023-03-20T15:01:41;21.03;;;13.50;;
4023;SDS011;2026;51.002;13.668;2023-03-20T15:06:47;10.23;;;7.30;;
4023;SDS011;2026;51.002;13.668;2023-03-20T15:11:53;10.20;;;7.20;;
4023;SDS011;2026;51.002;13.668;2023-03-20T15:17:01;14.20;;;8.60;;
4023;SDS011;2026;51.002;13.668;2023-03-20T15:22:09;7.00;;;5.07;;
4023;SDS011;2026;51.002;13.668;2023-03-20T15:27:16;7.53;;;5.20;;
4023;SDS011;2026;51.002;13.668;2023-03-20T15:32:21;6.47;;;5.47;;
4023;SDS011;2026;51.002;13.668;2023-03-20T15:37:25;8.57;;;5.70;;
4023;SDS011;2026;51.002;13.668;2023-03-20T15:42:29;6.73;;;5.80;;
4023;SDS011;2026;51.002;13.668;2023-03-20T15:47:33;10.20;;;7.67;;
4023;SDS011;2026;51.002;13.668;2023-03-20T15:52:38;9.10;;;7.30;;
4023;SDS011;2026;51.002;13.668;2023-03-20T15:57:43;10.77;;;9.07;;
4023;SDS011;2026;51.002;13.668;2023-03-20T16:02:49;11.73;;;7.93;;
4023;SDS011;2026;51.002;13.668;2023-03-20T16:07:52;10.33;;;7.67;;
4023;SDS011;2026;51.002;13.668;2023-03-20T16:12:55;9.70;;;7.37;;
4023;SDS011;2026;51.002;13.668;2023-03-20T16:18:01;12.77;;;8.50;;
4023;SDS011;2026;51.002;13.668;2023-03-20T16:23:06;17.37;;;11.40;;
4023;SDS011;2026;51.002;13.668;2023-03-20T16:28:11;9.37;;;7.50;;
4023;SDS011;2026;51.002;13.668;2023-03-20T16:33:18;9.90;;;7.40;;
4023;SDS011;2026;51.002;13.668;2023-03-20T16:38:23;8.13;;;5.80;;
4023;SDS011;2026;51.002;13.668;2023-03-20T16:43:29;7.63;;;5.57;;
4023;SDS011;2026;51.002;13.668;2023-03-20T16:48:34;7.83;;;5.50;;
4023;SDS011;2026;51.002;13.668;2023-03-20T16:53:40;9.93;;;7.50;;
4023;SDS011;2026;51.002;13.668;2023-03-20T16:58:46;9.03;;;6.30;;
4023;SDS011;2026;51.002;13.668;2023-03-20T17:03:51;12.07;;;8.30;;
4023;SDS011;2026;51.002;13.668;2023-03-20T17:08:59;9.40;;;7.03;;
4023;SDS011;2026;51.002;13.668;2023-03-20T17:14:04;10.50;;;6.53;;
4023;SDS011;2026;51.002;13.668;2023-03-20T17:19:13;9.40;;;6.20;;
4023;SDS011;2026;51.002;13.668;2023-03-20T17:24:17;7.40;;;5.20;;
4023;SDS011;2026;51.002;13.668;2023-03-20T17:29:21;9.00;;;6.30;;
4023;SDS011;2026;51.002;13.668;2023-03-20T17:34:26;8.80;;;6.70;;
4023;SDS011;2026;51.002;13.668;2023-03-20T17:39:29;8.57;;;5.77;;
4023;SDS011;2026;51.002;13.668;2023-03-20T17:44:34;8.97;;;5.97;;
4023;SDS011;2026;51.002;13.668;2023-03-20T17:49:39;10.57;;;6.47;;
4023;SDS011;2026;51.002;13.668;2023-03-20T17:54:42;8.90;;;7.10;;
4023;SDS011;2026;51.002;13.668;2023-03-20T17:59:45;10.07;;;6.10;;
4023;SDS011;2026;51.002;13.668;2023-03-20T18:04:51;9.40;;;7.07;;
4023;SDS011;2026;51.002;13.668;2023-03-20T18:09:54;23.60;;;21.17;;
4023;SDS011;2026;51.002;13.668;2023-03-20T18:14:58;10.23;;;6.70;;
4023;SDS011;2026;51.002;13.668;2023-03-20T18:20:02;12.67;;;9.13;;
4023;SDS011;2026;51.002;13.668;2023-03-20T18:25:06;15.07;;;10.57;;
4023;SDS011;2026;51.002;13.668;2023-03-20T18:30:12;14.23;;;10.57;;
4023;SDS011;2026;51.002;13.668;2023-03-20T18:35:18;17.53;;;12.30;;
4023;SDS011;2026;51.002;13.668;2023-03-20T18:40:21;11.10;;;8.50;;
4023;SDS011;2026;51.002;13.668;2023-03-20T18:45:27;12.17;;;9.00;;
4023;SDS011;2026;51.002;13.668;2023-03-20T18:50:33;10.00;;;7.70;;
4023;SDS011;2026;51.002;13.668;2023-03-20T18:55:38;12.80;;;10.23;;
4023;SDS011;2026;51.002;13.668;2023-03-20T19:00:41;11.30;;;7.60;;
4023;SDS011;2026;51.002;13.668;2023-03-20T19:05:45;8.33;;;6.73;;
4023;SDS011;2026;51.002;13.668;2023-03-20T19:10:48;12.47;;;9.57;;
4023;SDS011;2026;51.002;13.668;2023-03-20T19:15:52;11.80;;;8.07;;
4023;SDS011;2026;51.002;13.668;2023-03-20T19:20:56;14.27;;;8.63;;
4023;SDS011;2026;51.002;13.668;2023-03-20T19:25:59;13.07;;;8.23;;
4023;SDS011;2026;51.002;13.668;2023-03-20T19:31:02;12.37;;;8.20;;
4023;SDS011;2026;51.002;13.668;2023-03-20T19:36:10;14.93;;;9.97;;
4023;SDS011;2026;51.002;13.668;2023-03-20T19:41:24;17.37;;;10.63;;
4023;SDS011;2026;51.002;13.668;2023-03-20T19:46:28;12.53;;;8.90;;
4023;SDS011;2026;51.002;13.668;2023-03-20T19:51:43;14.23;;;8.83;;
4023;SDS011;2026;51.002;13.668;2023-03-20T19:56:46;15.17;;;9.50;;
4023;SDS011;2026;51.002;13.668;2023-03-20T20:01:49;14.60;;;9.80;;
4023;SDS011;2026;51.002;13.668;2023-03-20T20:06:55;18.80;;;9.50;;
4023;SDS011;2026;51.002;13.668;2023-03-20T20:12:18;14.20;;;10.63;;
4023;SDS011;2026;51.002;13.668;2023-03-20T20:17:21;17.17;;;11.07;;
4023;SDS011;2026;51.002;13.668;2023-03-20T20:22:25;17.10;;;10.93;;
4023;SDS011;2026;51.002;13.668;2023-03-20T20:27:29;15.67;;;10.80;;
4023;SDS011;2026;51.002;13.668;2023-03-20T20:32:33;19.93;;;10.77;;
4023;SDS011;2026;51.002;13.668;2023-03-20T20:37:39;17.33;;;11.00;;
4023;SDS011;2026;51.002;13.668;2023-03-20T20:43:03;18.40;;;11.53;;
4023;SDS011;2026;51.002;13.668;2023-03-20T20:48:11;19.10;;;11.23;;
4023;SDS011;2026;51.002;13.668;2023-03-20T20:53:15;16.17;;;11.20;;
4023;SDS011;2026;51.002;13.668;2023-03-20T20:58:18;18.00;;;11.40;;
4023;SDS011;2026;51.002;13.668;2023-03-20T21:03:21;15.57;;;10.80;;
4023;SDS011;2026;51.002;13.668;2023-03-20T21:08:25;17.17;;;11.13;;
4023;SDS011;2026;51.002;13.668;2023-03-20T21:13:28;16.80;;;10.97;;
4023;SDS011;2026;51.002;13.668;2023-03-20T21:18:31;16.83;;;10.90;;
4023;SDS011;2026;51.002;13.668;2023-03-20T21:23:36;17.97;;;11.67;;
4023;SDS011;2026;51.002;13.668;2023-03-20T21:28:39;15.07;;;10.27;;
4023;SDS011;2026;51.002;13.668;2023-03-20T21:33:42;16.93;;;10.43;;
4023;SDS011;2026;51.002;13.668;2023-03-20T21:38:46;15.80;;;10.40;;
4023;SDS011;2026;51.002;13.668;2023-03-20T21:44:10;16.97;;;10.00;;
4023;SDS011;2026;51.002;13.668;2023-03-20T21:49:20;16.20;;;10.60;;
4023;SDS011;2026;51.002;13.668;2023-03-20T21:54:44;14.67;;;9.23;;
4023;SDS011;2026;51.002;13.668;2023-03-20T22:00:08;14.73;;;10.43;;
4023;SDS011;2026;51.002;13.668;2023-03-20T22:05:35;16.73;;;10.40;;
4023;SDS011;2026;51.002;13.668;2023-03-20T22:11:00;12.87;;;9.17;;
4023;SDS011;2026;51.002;13.668;2023-03-20T22:16:23;15.47;;;8.90;;
4023;SDS011;2026;51.002;13.668;2023-03-20T22:21:46;13.50;;;9.00;;
4023;SDS011;2026;51.002;13.668;2023-03-20T22:27:10;15.07;;;9.53;;
4023;SDS011;2026;51.002;13.668;2023-03-20T22:32:33;14.03;;;9.03;;
4023;SDS011;2026;51.002;13.668;2023-03-20T22:37:56;16.40;;;9.97;;
4023;SDS011;2026;51.002;13.668;2023-03-20T22:43:20;14.00;;;8.90;;
4023;SDS011;2026;51.002;13.668;2023-03-20T22:48:43;12.67;;;9.27;;
4023;SDS011;2026;51.002;13.668;2023-03-20T22:53:46;13.10;;;8.97;;
4023;SDS011;2026;51.002;13.668;2023-03-20T22:58:52;16.37;;;8.70;;
4023;SDS011;2026;51.002;13.668;2023-03-20T23:03:55;14.60;;;9.50;;
4023;SDS011;2026;51.002;13.668;2023-03-20T23:08:58;14.50;;;8.70;;
4023;SDS011;2026;51.002;13.668;2023-03-20T23:14:14;17.63;;;9.70;;
4023;SDS011;2026;51.002;13.668;2023-03-20T23:19:22;16.77;;;9.30;;
4023;SDS011;2026;51.002;13.668;2023-03-20T23:24:28;13.10;;;8.70;;
4023;SDS011;2026;51.002;13.668;2023-03-20T23:29:32;13.60;;;9.50;;
4023;SDS011;2026;51.002;13.668;2023-03-20T23:34:35;18.27;;;10.30;;
4023;SDS011;2026;51.002;13.668;2023-03-20T23:39:38;13.83;;;9.67;;
4023;SDS011;2026;51.002;13.668;2023-03-20T23:44:43;17.93;;;10.37;;
4023;SDS011;2026;51.002;13.668;2023-03-20T23:49:57;14.47;;;9.17;;
4023;SDS011;2026;51.002;13.668;2023-03-20T23:55:00;15.70;;;9.93;;
